sensor_id;sensor_type;location;lat;lon;timestamp;temperature;humidity
46732;DHT22;32477;51.474;5.696;2024-03-22T00:01:47;11.40;99.90
46732;DHT22;32477;51.474;5.696;2024-03-22T00:04:14;11.50;99.90
46732;DHT22;32477;51.474;5.696;2024-03-22T00:06:41;11.50;99.90
46732;DHT22;32477;51.474;5.696;2024-03-22T00:09:08;11.50;99.90
46732;DHT22;32477;51.474;5.696;2024-03-22T00:11:33;11.50;99.90
46732;DHT22;32477;51.474;5.696;2024-03-22T00:13:59;11.50;99.90
46732;DHT22;32477;51.474;5.696;2024-03-22T00:16:28;11.50;99.90
46732;DHT22;32477;51.474;5.696;2024-03-22T00:18:53;11.50;99.90
46732;DHT22;32477;51.474;5.696;2024-03-22T00:21:19;11.50;99.90
46732;DHT22;32477;51.474;5.696;2024-03-22T00:23:45;11.60;99.90
46732;DHT22;32477;51.474;5.696;2024-03-22T00:26:13;11.50;99.90
46732;DHT22;32477;51.474;5.696;2024-03-22T00:28:39;11.60;99.90
46732;DHT22;32477;51.474;5.696;2024-03-22T00:31:08;11.50;99.90
46732;DHT22;32477;51.474;5.696;2024-03-22T00:33:36;11.50;99.90
46732;DHT22;32477;51.474;5.696;2024-03-22T00:36:02;11.50;99.90
46732;DHT22;32477;51.474;5.696;2024-03-22T00:38:31;11.50;99.90
46732;DHT22;32477;51.474;5.696;2024-03-22T00:40:58;11.50;99.90
46732;DHT22;32477;51.474;5.696;2024-03-22T00:43:23;11.60;99.90
46732;DHT22;32477;51.474;5.696;2024-03-22T00:45:49;11.60;99.90
46732;DHT22;32477;51.474;5.696;2024-03-22T00:48:15;11.60;99.90
46732;DHT22;32477;51.474;5.696;2024-03-22T00:50:44;11.60;99.90
46732;DHT22;32477;51.474;5.696;2024-03-22T00:53:09;11.60;99.90
46732;DHT22;32477;51.474;5.696;2024-03-22T00:55:35;11.70;99.90
46732;DHT22;32477;51.474;5.696;2024-03-22T00:58:01;11.80;99.90
46732;DHT22;32477;51.474;5.696;2024-03-22T01:00:27;11.70;99.90
46732;DHT22;32477;51.474;5.696;2024-03-22T01:02:52;11.70;99.90
46732;DHT22;32477;51.474;5.696;2024-03-22T01:05:18;11.80;99.90
46732;DHT22;32477;51.474;5.696;2024-03-22T01:07:44;11.80;99.90
46732;DHT22;32477;51.474;5.696;2024-03-22T01:10:11;11.80;99.90
46732;DHT22;32477;51.474;5.696;2024-03-22T01:12:37;11.80;99.90
46732;DHT22;32477;51.474;5.696;2024-03-22T01:15:05;11.80;99.90
46732;DHT22;32477;51.474;5.696;2024-03-22T01:17:31;11.80;99.90
46732;DHT22;32477;51.474;5.696;2024-03-22T01:19:56;11.80;99.90
46732;DHT22;32477;51.474;5.696;2024-03-22T01:22:22;11.80;99.90
46732;DHT22;32477;51.474;5.696;2024-03-22T01:24:48;11.90;99.90
46732;DHT22;32477;51.474;5.696;2024-03-22T01:27:14;11.80;99.90
46732;DHT22;32477;51.474;5.696;2024-03-22T01:29:40;11.80;99.90
46732;DHT22;32477;51.474;5.696;2024-03-22T01:32:06;11.90;99.90
46732;DHT22;32477;51.474;5.696;2024-03-22T01:34:32;11.80;99.90
46732;DHT22;32477;51.474;5.696;2024-03-22T01:36:58;11.80;99.90
46732;DHT22;32477;51.474;5.696;2024-03-22T01:39:24;11.80;99.90
46732;DHT22;32477;51.474;5.696;2024-03-22T01:41:50;11.90;99.90
46732;DHT22;32477;51.474;5.696;2024-03-22T01:44:17;11.90;99.90
46732;DHT22;32477;51.474;5.696;2024-03-22T01:46:44;11.80;99.90
46732;DHT22;32477;51.474;5.696;2024-03-22T01:49:12;11.80;99.90
46732;DHT22;32477;51.474;5.696;2024-03-22T01:51:42;11.80;99.90
46732;DHT22;32477;51.474;5.696;2024-03-22T01:54:09;11.80;99.90
46732;DHT22;32477;51.474;5.696;2024-03-22T01:56:39;11.80;99.90
46732;DHT22;32477;51.474;5.696;2024-03-22T01:59:05;11.80;99.90
46732;DHT22;32477;51.474;5.696;2024-03-22T02:01:32;11.90;99.90
46732;DHT22;32477;51.474;5.696;2024-03-22T02:03:58;11.90;99.90
46732;DHT22;32477;51.474;5.696;2024-03-22T02:06:23;11.90;99.90
46732;DHT22;32477;51.474;5.696;2024-03-22T02:08:49;11.90;99.90
46732;DHT22;32477;51.474;5.696;2024-03-22T02:11:15;11.90;99.90
46732;DHT22;32477;51.474;5.696;2024-03-22T02:13:46;11.90;99.90
46732;DHT22;32477;51.474;5.696;2024-03-22T02:16:12;11.90;99.90
46732;DHT22;32477;51.474;5.696;2024-03-22T02:18:40;11.80;99.90
46732;DHT22;32477;51.474;5.696;2024-03-22T02:21:06;11.80;99.90
46732;DHT22;32477;51.474;5.696;2024-03-22T02:23:36;11.70;99.90
46732;DHT22;32477;51.474;5.696;2024-03-22T02:26:03;11.60;99.90
46732;DHT22;32477;51.474;5.696;2024-03-22T02:28:30;11.60;99.90
46732;DHT22;32477;51.474;5.696;2024-03-22T02:30:57;11.60;99.90
46732;DHT22;32477;51.474;5.696;2024-03-22T02:33:23;11.50;99.90
46732;DHT22;32477;51.474;5.696;2024-03-22T02:35:50;11.40;99.90
46732;DHT22;32477;51.474;5.696;2024-03-22T02:38:19;11.30;99.90
46732;DHT22;32477;51.474;5.696;2024-03-22T02:40:45;11.20;99.90
46732;DHT22;32477;51.474;5.696;2024-03-22T02:43:15;11.30;99.90
46732;DHT22;32477;51.474;5.696;2024-03-22T02:45:43;11.20;99.90
46732;DHT22;32477;51.474;5.696;2024-03-22T02:48:08;11.20;99.90
46732;DHT22;32477;51.474;5.696;2024-03-22T02:50:35;11.30;99.90
46732;DHT22;32477;51.474;5.696;2024-03-22T02:53:01;11.30;99.90
46732;DHT22;32477;51.474;5.696;2024-03-22T02:55:35;11.40;99.90
46732;DHT22;32477;51.474;5.696;2024-03-22T02:58:01;11.40;99.90
46732;DHT22;32477;51.474;5.696;2024-03-22T03:00:28;11.40;99.90
46732;DHT22;32477;51.474;5.696;2024-03-22T03:02:53;11.40;99.90
46732;DHT22;32477;51.474;5.696;2024-03-22T03:05:19;11.40;99.90
46732;DHT22;32477;51.474;5.696;2024-03-22T03:07:45;11.40;99.90
46732;DHT22;32477;51.474;5.696;2024-03-22T03:10:12;11.60;99.90
46732;DHT22;32477;51.474;5.696;2024-03-22T03:12:40;11.60;99.90
46732;DHT22;32477;51.474;5.696;2024-03-22T03:15:09;11.60;99.90
46732;DHT22;32477;51.474;5.696;2024-03-22T03:17:35;11.60;99.90
46732;DHT22;32477;51.474;5.696;2024-03-22T03:20:00;11.50;99.90
46732;DHT22;32477;51.474;5.696;2024-03-22T03:22:26;11.50;99.90
46732;DHT22;32477;51.474;5.696;2024-03-22T03:24:52;11.40;99.90
46732;DHT22;32477;51.474;5.696;2024-03-22T03:27:17;11.40;99.90
46732;DHT22;32477;51.474;5.696;2024-03-22T03:29:43;11.40;99.90
46732;DHT22;32477;51.474;5.696;2024-03-22T03:32:09;11.30;99.90
46732;DHT22;32477;51.474;5.696;2024-03-22T03:34:34;11.20;99.90
46732;DHT22;32477;51.474;5.696;2024-03-22T03:37:14;11.20;99.90
46732;DHT22;32477;51.474;5.696;2024-03-22T03:39:42;11.20;99.90
46732;DHT22;32477;51.474;5.696;2024-03-22T03:42:09;11.10;99.90
46732;DHT22;32477;51.474;5.696;2024-03-22T03:44:37;11.10;99.90
46732;DHT22;32477;51.474;5.696;2024-03-22T03:47:03;11.10;99.90
46732;DHT22;32477;51.474;5.696;2024-03-22T03:49:29;11.10;99.90
46732;DHT22;32477;51.474;5.696;2024-03-22T03:51:58;11.10;99.90
46732;DHT22;32477;51.474;5.696;2024-03-22T03:54:24;11.10;99.90
46732;DHT22;32477;51.474;5.696;2024-03-22T03:56:49;11.10;99.90
46732;DHT22;32477;51.474;5.696;2024-03-22T03:59:15;11.10;99.90
46732;DHT22;32477;51.474;5.696;2024-03-22T04:01:41;11.10;99.90
46732;DHT22;32477;51.474;5.696;2024-03-22T04:04:06;11.20;99.90
46732;DHT22;32477;51.474;5.696;2024-03-22T04:06:32;11.10;99.90
46732;DHT22;32477;51.474;5.696;2024-03-22T04:08:59;11.10;99.90
46732;DHT22;32477;51.474;5.696;2024-03-22T04:11:26;11.20;99.90
46732;DHT22;32477;51.474;5.696;2024-03-22T04:13:51;11.20;99.90
46732;DHT22;32477;51.474;5.696;2024-03-22T04:16:17;11.20;99.90
46732;DHT22;32477;51.474;5.696;2024-03-22T04:18:43;11.20;99.90
46732;DHT22;32477;51.474;5.696;2024-03-22T04:21:09;11.30;99.90
46732;DHT22;32477;51.474;5.696;2024-03-22T04:23:35;11.30;99.90
46732;DHT22;32477;51.474;5.696;2024-03-22T04:26:01;11.30;99.90
46732;DHT22;32477;51.474;5.696;2024-03-22T04:28:47;11.20;99.90
46732;DHT22;32477;51.474;5.696;2024-03-22T04:31:14;11.20;99.90
46732;DHT22;32477;51.474;5.696;2024-03-22T04:33:41;11.30;99.90
46732;DHT22;32477;51.474;5.696;2024-03-22T04:36:07;11.20;99.90
46732;DHT22;32477;51.474;5.696;2024-03-22T04:38:34;11.20;99.90
46732;DHT22;32477;51.474;5.696;2024-03-22T04:41:00;11.30;99.90
46732;DHT22;32477;51.474;5.696;2024-03-22T04:43:27;11.30;99.90
46732;DHT22;32477;51.474;5.696;2024-03-22T04:45:53;11.30;99.90
46732;DHT22;32477;51.474;5.696;2024-03-22T04:48:20;11.30;99.90
46732;DHT22;32477;51.474;5.696;2024-03-22T04:50:50;11.30;99.90
46732;DHT22;32477;51.474;5.696;2024-03-22T04:53:17;11.30;99.90
46732;DHT22;32477;51.474;5.696;2024-03-22T04:55:44;11.30;99.90
46732;DHT22;32477;51.474;5.696;2024-03-22T04:58:20;11.30;99.90
46732;DHT22;32477;51.474;5.696;2024-03-22T05:00:47;11.30;99.90
46732;DHT22;32477;51.474;5.696;2024-03-22T05:03:14;11.30;99.90
46732;DHT22;32477;51.474;5.696;2024-03-22T05:05:43;11.30;99.90
46732;DHT22;32477;51.474;5.696;2024-03-22T05:08:09;11.30;99.90
46732;DHT22;32477;51.474;5.696;2024-03-22T05:10:35;11.40;99.90
46732;DHT22;32477;51.474;5.696;2024-03-22T05:13:01;11.30;99.90
46732;DHT22;32477;51.474;5.696;2024-03-22T05:15:28;11.20;99.90
46732;DHT22;32477;51.474;5.696;2024-03-22T05:17:56;11.20;99.90
46732;DHT22;32477;51.474;5.696;2024-03-22T05:20:22;11.10;99.90
46732;DHT22;32477;51.474;5.696;2024-03-22T05:22:47;11.20;99.90
46732;DHT22;32477;51.474;5.696;2024-03-22T05:25:13;11.10;99.90
46732;DHT22;32477;51.474;5.696;2024-03-22T05:27:40;11.00;99.90
46732;DHT22;32477;51.474;5.696;2024-03-22T05:30:10;11.00;99.90
46732;DHT22;32477;51.474;5.696;2024-03-22T05:32:36;10.90;99.90
46732;DHT22;32477;51.474;5.696;2024-03-22T05:35:02;11.00;99.90
46732;DHT22;32477;51.474;5.696;2024-03-22T05:37:28;11.00;99.90
46732;DHT22;32477;51.474;5.696;2024-03-22T05:39:54;10.90;99.90
46732;DHT22;32477;51.474;5.696;2024-03-22T05:42:20;10.90;99.90
46732;DHT22;32477;51.474;5.696;2024-03-22T05:44:46;10.90;99.90
46732;DHT22;32477;51.474;5.696;2024-03-22T05:47:11;10.80;99.90
46732;DHT22;32477;51.474;5.696;2024-03-22T05:49:40;10.90;99.90
46732;DHT22;32477;51.474;5.696;2024-03-22T05:52:06;10.90;99.90
46732;DHT22;32477;51.474;5.696;2024-03-22T05:54:32;10.90;99.90
46732;DHT22;32477;51.474;5.696;2024-03-22T05:57:05;10.90;99.90
46732;DHT22;32477;51.474;5.696;2024-03-22T05:59:31;11.00;99.90
46732;DHT22;32477;51.474;5.696;2024-03-22T06:01:57;11.00;99.90
46732;DHT22;32477;51.474;5.696;2024-03-22T06:04:22;11.00;99.90
46732;DHT22;32477;51.474;5.696;2024-03-22T06:06:54;11.00;99.90
46732;DHT22;32477;51.474;5.696;2024-03-22T06:09:20;11.10;99.90
46732;DHT22;32477;51.474;5.696;2024-03-22T06:12:05;11.10;99.90
46732;DHT22;32477;51.474;5.696;2024-03-22T06:14:31;11.20;99.90
46732;DHT22;32477;51.474;5.696;2024-03-22T06:16:56;11.20;99.90
46732;DHT22;32477;51.474;5.696;2024-03-22T06:19:23;11.20;99.90
46732;DHT22;32477;51.474;5.696;2024-03-22T06:21:52;11.30;99.90
46732;DHT22;32477;51.474;5.696;2024-03-22T06:24:17;11.30;99.90
46732;DHT22;32477;51.474;5.696;2024-03-22T06:26:43;11.30;99.90
46732;DHT22;32477;51.474;5.696;2024-03-22T06:29:09;11.40;99.90
46732;DHT22;32477;51.474;5.696;2024-03-22T06:31:34;11.40;99.90
46732;DHT22;32477;51.474;5.696;2024-03-22T06:34:00;11.40;99.90
46732;DHT22;32477;51.474;5.696;2024-03-22T06:36:33;11.40;99.90
46732;DHT22;32477;51.474;5.696;2024-03-22T06:38:59;11.40;99.90
46732;DHT22;32477;51.474;5.696;2024-03-22T06:41:25;11.50;99.90
46732;DHT22;32477;51.474;5.696;2024-03-22T06:43:54;11.50;99.90
46732;DHT22;32477;51.474;5.696;2024-03-22T06:46:20;11.60;99.90
46732;DHT22;32477;51.474;5.696;2024-03-22T06:48:46;11.60;99.90
46732;DHT22;32477;51.474;5.696;2024-03-22T06:51:12;11.60;99.90
46732;DHT22;32477;51.474;5.696;2024-03-22T06:53:37;11.60;99.90
46732;DHT22;32477;51.474;5.696;2024-03-22T06:56:04;11.60;99.90
46732;DHT22;32477;51.474;5.696;2024-03-22T06:58:30;11.60;99.90
46732;DHT22;32477;51.474;5.696;2024-03-22T07:00:55;11.70;99.90
46732;DHT22;32477;51.474;5.696;2024-03-22T07:03:21;11.80;99.90
46732;DHT22;32477;51.474;5.696;2024-03-22T07:05:47;11.90;99.90
46732;DHT22;32477;51.474;5.696;2024-03-22T07:08:13;12.00;99.90
46732;DHT22;32477;51.474;5.696;2024-03-22T07:10:39;12.00;99.90
46732;DHT22;32477;51.474;5.696;2024-03-22T07:13:06;12.00;99.90
46732;DHT22;32477;51.474;5.696;2024-03-22T07:15:31;12.00;99.90
46732;DHT22;32477;51.474;5.696;2024-03-22T07:17:58;12.00;99.90
46732;DHT22;32477;51.474;5.696;2024-03-22T07:20:24;12.00;99.90
46732;DHT22;32477;51.474;5.696;2024-03-22T07:22:50;11.90;99.90
46732;DHT22;32477;51.474;5.696;2024-03-22T07:25:15;11.80;99.90
46732;DHT22;32477;51.474;5.696;2024-03-22T07:27:41;11.80;99.90
46732;DHT22;32477;51.474;5.696;2024-03-22T07:30:07;11.70;99.90
46732;DHT22;32477;51.474;5.696;2024-03-22T07:32:33;11.80;99.90
46732;DHT22;32477;51.474;5.696;2024-03-22T07:34:58;12.00;99.90
46732;DHT22;32477;51.474;5.696;2024-03-22T07:37:24;12.20;99.90
46732;DHT22;32477;51.474;5.696;2024-03-22T07:39:50;12.60;99.90
46732;DHT22;32477;51.474;5.696;2024-03-22T07:42:16;13.00;99.90
46732;DHT22;32477;51.474;5.696;2024-03-22T07:44:42;13.30;99.90
46732;DHT22;32477;51.474;5.696;2024-03-22T07:47:08;13.70;99.90
46732;DHT22;32477;51.474;5.696;2024-03-22T07:49:33;13.90;99.90
46732;DHT22;32477;51.474;5.696;2024-03-22T07:52:00;13.70;99.90
46732;DHT22;32477;51.474;5.696;2024-03-22T07:54:25;13.40;99.90
46732;DHT22;32477;51.474;5.696;2024-03-22T07:56:51;13.20;99.90
46732;DHT22;32477;51.474;5.696;2024-03-22T07:59:17;13.00;99.90
46732;DHT22;32477;51.474;5.696;2024-03-22T08:01:42;12.90;99.90
46732;DHT22;32477;51.474;5.696;2024-03-22T08:04:08;12.90;99.90
46732;DHT22;32477;51.474;5.696;2024-03-22T08:06:34;13.10;99.90
46732;DHT22;32477;51.474;5.696;2024-03-22T08:09:00;13.50;99.90
46732;DHT22;32477;51.474;5.696;2024-03-22T08:11:27;13.80;99.90
46732;DHT22;32477;51.474;5.696;2024-03-22T08:13:52;13.90;99.90
46732;DHT22;32477;51.474;5.696;2024-03-22T08:16:20;13.90;99.90
46732;DHT22;32477;51.474;5.696;2024-03-22T08:18:46;13.90;99.90
46732;DHT22;32477;51.474;5.696;2024-03-22T08:21:11;14.00;99.90
46732;DHT22;32477;51.474;5.696;2024-03-22T08:23:37;14.30;99.90
46732;DHT22;32477;51.474;5.696;2024-03-22T08:26:03;14.60;99.90
46732;DHT22;32477;51.474;5.696;2024-03-22T08:28:29;14.80;99.90
46732;DHT22;32477;51.474;5.696;2024-03-22T08:30:54;14.70;99.90
46732;DHT22;32477;51.474;5.696;2024-03-22T08:33:20;14.60;99.90
46732;DHT22;32477;51.474;5.696;2024-03-22T08:35:45;14.40;99.90
46732;DHT22;32477;51.474;5.696;2024-03-22T08:38:11;14.20;99.90
46732;DHT22;32477;51.474;5.696;2024-03-22T08:40:40;14.00;99.90
46732;DHT22;32477;51.474;5.696;2024-03-22T08:43:06;14.00;99.90
46732;DHT22;32477;51.474;5.696;2024-03-22T08:45:35;13.90;99.90
46732;DHT22;32477;51.474;5.696;2024-03-22T08:48:01;13.90;99.90
46732;DHT22;32477;51.474;5.696;2024-03-22T08:50:28;13.90;99.90
46732;DHT22;32477;51.474;5.696;2024-03-22T08:52:53;13.70;99.90
46732;DHT22;32477;51.474;5.696;2024-03-22T08:55:19;13.40;99.90
46732;DHT22;32477;51.474;5.696;2024-03-22T08:57:44;13.30;99.90
46732;DHT22;32477;51.474;5.696;2024-03-22T09:00:11;13.20;99.90
46732;DHT22;32477;51.474;5.696;2024-03-22T09:02:37;13.20;99.90
46732;DHT22;32477;51.474;5.696;2024-03-22T09:05:04;13.00;99.90
46732;DHT22;32477;51.474;5.696;2024-03-22T09:07:30;13.00;99.90
46732;DHT22;32477;51.474;5.696;2024-03-22T09:09:56;12.90;99.90
46732;DHT22;32477;51.474;5.696;2024-03-22T09:12:21;12.90;99.90
46732;DHT22;32477;51.474;5.696;2024-03-22T09:14:47;12.90;99.90
46732;DHT22;32477;51.474;5.696;2024-03-22T09:17:13;13.00;99.90
46732;DHT22;32477;51.474;5.696;2024-03-22T09:19:39;13.00;99.90
46732;DHT22;32477;51.474;5.696;2024-03-22T09:22:05;13.10;99.90
46732;DHT22;32477;51.474;5.696;2024-03-22T09:24:31;13.10;99.90
46732;DHT22;32477;51.474;5.696;2024-03-22T09:26:57;13.10;99.90
46732;DHT22;32477;51.474;5.696;2024-03-22T09:29:23;13.10;99.90
46732;DHT22;32477;51.474;5.696;2024-03-22T09:31:48;13.10;99.90
46732;DHT22;32477;51.474;5.696;2024-03-22T09:34:16;13.10;99.90
46732;DHT22;32477;51.474;5.696;2024-03-22T09:36:42;13.20;99.90
46732;DHT22;32477;51.474;5.696;2024-03-22T09:39:07;13.20;99.90
46732;DHT22;32477;51.474;5.696;2024-03-22T09:41:38;13.30;99.90
46732;DHT22;32477;51.474;5.696;2024-03-22T09:44:06;13.40;99.90
46732;DHT22;32477;51.474;5.696;2024-03-22T09:46:33;13.70;99.90
46732;DHT22;32477;51.474;5.696;2024-03-22T09:49:01;13.70;99.90
46732;DHT22;32477;51.474;5.696;2024-03-22T09:51:27;13.80;99.90
46732;DHT22;32477;51.474;5.696;2024-03-22T09:53:54;14.00;99.90
46732;DHT22;32477;51.474;5.696;2024-03-22T09:56:21;14.10;99.90
46732;DHT22;32477;51.474;5.696;2024-03-22T09:58:47;13.90;99.90
46732;DHT22;32477;51.474;5.696;2024-03-22T10:01:13;13.80;99.90
46732;DHT22;32477;51.474;5.696;2024-03-22T10:03:40;13.60;99.90
46732;DHT22;32477;51.474;5.696;2024-03-22T10:06:06;13.50;99.90
46732;DHT22;32477;51.474;5.696;2024-03-22T10:08:31;13.60;99.90
46732;DHT22;32477;51.474;5.696;2024-03-22T10:10:57;13.60;99.90
46732;DHT22;32477;51.474;5.696;2024-03-22T10:13:23;13.60;99.90
46732;DHT22;32477;51.474;5.696;2024-03-22T10:15:49;13.40;99.90
46732;DHT22;32477;51.474;5.696;2024-03-22T10:18:15;13.40;99.90
46732;DHT22;32477;51.474;5.696;2024-03-22T10:20:41;13.40;99.90
46732;DHT22;32477;51.474;5.696;2024-03-22T10:23:07;13.40;99.90
46732;DHT22;32477;51.474;5.696;2024-03-22T10:25:33;13.40;99.90
46732;DHT22;32477;51.474;5.696;2024-03-22T10:27:59;13.40;99.90
46732;DHT22;32477;51.474;5.696;2024-03-22T10:30:25;13.40;99.90
46732;DHT22;32477;51.474;5.696;2024-03-22T10:32:52;13.50;99.90
46732;DHT22;32477;51.474;5.696;2024-03-22T10:35:18;13.60;99.90
46732;DHT22;32477;51.474;5.696;2024-03-22T10:37:44;13.70;99.90
46732;DHT22;32477;51.474;5.696;2024-03-22T10:40:10;13.80;99.90
46732;DHT22;32477;51.474;5.696;2024-03-22T10:42:38;13.80;99.90
46732;DHT22;32477;51.474;5.696;2024-03-22T10:45:05;13.60;99.90
46732;DHT22;32477;51.474;5.696;2024-03-22T10:47:32;13.60;99.90
46732;DHT22;32477;51.474;5.696;2024-03-22T10:50:10;13.50;99.90
46732;DHT22;32477;51.474;5.696;2024-03-22T10:52:58;13.40;99.90
46732;DHT22;32477;51.474;5.696;2024-03-22T10:55:30;13.30;99.90
46732;DHT22;32477;51.474;5.696;2024-03-22T10:57:57;13.30;99.90
46732;DHT22;32477;51.474;5.696;2024-03-22T11:00:34;13.30;99.90
46732;DHT22;32477;51.474;5.696;2024-03-22T11:03:02;13.20;99.90
46732;DHT22;32477;51.474;5.696;2024-03-22T11:05:28;13.20;99.90
46732;DHT22;32477;51.474;5.696;2024-03-22T11:08:04;13.10;99.90
46732;DHT22;32477;51.474;5.696;2024-03-22T11:10:30;13.00;99.90
46732;DHT22;32477;51.474;5.696;2024-03-22T11:13:01;13.00;99.90
46732;DHT22;32477;51.474;5.696;2024-03-22T11:15:30;13.00;99.90
46732;DHT22;32477;51.474;5.696;2024-03-22T11:17:57;13.00;99.90
46732;DHT22;32477;51.474;5.696;2024-03-22T11:20:23;13.00;99.90
46732;DHT22;32477;51.474;5.696;2024-03-22T11:22:50;12.90;99.90
46732;DHT22;32477;51.474;5.696;2024-03-22T11:25:16;12.90;99.90
46732;DHT22;32477;51.474;5.696;2024-03-22T11:27:42;12.90;99.90
46732;DHT22;32477;51.474;5.696;2024-03-22T11:30:08;13.00;99.90
46732;DHT22;32477;51.474;5.696;2024-03-22T11:32:34;13.00;99.90
46732;DHT22;32477;51.474;5.696;2024-03-22T11:35:13;13.00;99.90
46732;DHT22;32477;51.474;5.696;2024-03-22T11:37:42;12.90;99.90
46732;DHT22;32477;51.474;5.696;2024-03-22T11:40:11;12.80;99.90
46732;DHT22;32477;51.474;5.696;2024-03-22T11:42:39;12.80;99.90
46732;DHT22;32477;51.474;5.696;2024-03-22T11:45:07;12.90;99.90
46732;DHT22;32477;51.474;5.696;2024-03-22T11:47:34;12.80;99.90
46732;DHT22;32477;51.474;5.696;2024-03-22T11:49:59;12.80;99.90
46732;DHT22;32477;51.474;5.696;2024-03-22T11:52:25;12.80;99.90
46732;DHT22;32477;51.474;5.696;2024-03-22T11:54:54;12.80;99.90
46732;DHT22;32477;51.474;5.696;2024-03-22T11:57:21;12.70;99.90
46732;DHT22;32477;51.474;5.696;2024-03-22T11:59:47;12.70;99.90
46732;DHT22;32477;51.474;5.696;2024-03-22T12:02:16;12.70;99.90
46732;DHT22;32477;51.474;5.696;2024-03-22T12:04:45;12.70;99.90
46732;DHT22;32477;51.474;5.696;2024-03-22T12:07:15;12.70;99.90
46732;DHT22;32477;51.474;5.696;2024-03-22T12:09:41;12.60;99.90
46732;DHT22;32477;51.474;5.696;2024-03-22T12:12:10;12.50;99.90
46732;DHT22;32477;51.474;5.696;2024-03-22T12:14:36;12.60;99.90
46732;DHT22;32477;51.474;5.696;2024-03-22T12:17:02;12.50;99.90
46732;DHT22;32477;51.474;5.696;2024-03-22T12:19:28;12.50;99.90
46732;DHT22;32477;51.474;5.696;2024-03-22T12:21:54;12.60;99.90
46732;DHT22;32477;51.474;5.696;2024-03-22T12:24:21;12.70;99.90
46732;DHT22;32477;51.474;5.696;2024-03-22T12:26:46;12.80;99.90
46732;DHT22;32477;51.474;5.696;2024-03-22T12:29:13;12.60;99.90
46732;DHT22;32477;51.474;5.696;2024-03-22T12:31:39;12.70;99.90
46732;DHT22;32477;51.474;5.696;2024-03-22T12:34:04;12.80;99.90
46732;DHT22;32477;51.474;5.696;2024-03-22T12:36:30;12.80;99.90
46732;DHT22;32477;51.474;5.696;2024-03-22T12:38:56;12.90;99.90
46732;DHT22;32477;51.474;5.696;2024-03-22T12:41:21;12.90;99.90
46732;DHT22;32477;51.474;5.696;2024-03-22T12:43:47;12.90;99.90
46732;DHT22;32477;51.474;5.696;2024-03-22T12:46:13;12.80;99.90
46732;DHT22;32477;51.474;5.696;2024-03-22T12:48:39;12.70;99.90
46732;DHT22;32477;51.474;5.696;2024-03-22T12:51:04;12.80;99.90
46732;DHT22;32477;51.474;5.696;2024-03-22T12:53:30;12.70;99.90
46732;DHT22;32477;51.474;5.696;2024-03-22T12:55:56;12.60;99.90
46732;DHT22;32477;51.474;5.696;2024-03-22T12:58:21;12.60;99.90
46732;DHT22;32477;51.474;5.696;2024-03-22T13:00:47;12.50;99.90
46732;DHT22;32477;51.474;5.696;2024-03-22T13:03:13;12.50;99.90
46732;DHT22;32477;51.474;5.696;2024-03-22T13:05:40;12.50;99.90
46732;DHT22;32477;51.474;5.696;2024-03-22T13:08:06;12.40;99.90
46732;DHT22;32477;51.474;5.696;2024-03-22T13:10:32;12.40;99.90
46732;DHT22;32477;51.474;5.696;2024-03-22T13:12:58;12.30;99.90
46732;DHT22;32477;51.474;5.696;2024-03-22T13:15:23;12.30;99.90
46732;DHT22;32477;51.474;5.696;2024-03-22T13:17:49;12.20;99.90
46732;DHT22;32477;51.474;5.696;2024-03-22T13:20:15;12.20;99.90
46732;DHT22;32477;51.474;5.696;2024-03-22T13:22:44;12.20;99.90
46732;DHT22;32477;51.474;5.696;2024-03-22T13:25:09;12.10;99.90
46732;DHT22;32477;51.474;5.696;2024-03-22T13:27:37;12.20;99.90
46732;DHT22;32477;51.474;5.696;2024-03-22T13:30:09;12.00;99.90
46732;DHT22;32477;51.474;5.696;2024-03-22T13:32:36;12.00;99.90
46732;DHT22;32477;51.474;5.696;2024-03-22T13:35:03;11.90;99.90
46732;DHT22;32477;51.474;5.696;2024-03-22T13:37:28;11.80;99.90
46732;DHT22;32477;51.474;5.696;2024-03-22T13:39:54;11.80;99.90
46732;DHT22;32477;51.474;5.696;2024-03-22T13:42:20;11.80;99.90
46732;DHT22;32477;51.474;5.696;2024-03-22T13:44:45;11.80;99.90
46732;DHT22;32477;51.474;5.696;2024-03-22T13:47:11;11.80;99.90
46732;DHT22;32477;51.474;5.696;2024-03-22T13:49:37;11.80;99.90
46732;DHT22;32477;51.474;5.696;2024-03-22T13:52:09;11.60;99.90
46732;DHT22;32477;51.474;5.696;2024-03-22T13:54:35;11.60;99.90
46732;DHT22;32477;51.474;5.696;2024-03-22T13:57:01;11.70;99.90
46732;DHT22;32477;51.474;5.696;2024-03-22T13:59:28;11.80;99.90
46732;DHT22;32477;51.474;5.696;2024-03-22T14:01:54;11.90;99.90
46732;DHT22;32477;51.474;5.696;2024-03-22T14:04:20;11.90;99.90
46732;DHT22;32477;51.474;5.696;2024-03-22T14:06:45;11.90;99.90
46732;DHT22;32477;51.474;5.696;2024-03-22T14:09:11;11.80;99.90
46732;DHT22;32477;51.474;5.696;2024-03-22T14:11:39;11.80;99.90
46732;DHT22;32477;51.474;5.696;2024-03-22T14:14:05;11.70;99.90
46732;DHT22;32477;51.474;5.696;2024-03-22T14:16:31;11.60;99.90
46732;DHT22;32477;51.474;5.696;2024-03-22T14:18:56;11.60;99.90
46732;DHT22;32477;51.474;5.696;2024-03-22T14:21:22;11.60;99.90
46732;DHT22;32477;51.474;5.696;2024-03-22T14:23:48;11.60;99.90
46732;DHT22;32477;51.474;5.696;2024-03-22T14:26:18;11.60;99.90
46732;DHT22;32477;51.474;5.696;2024-03-22T14:28:44;11.50;99.90
46732;DHT22;32477;51.474;5.696;2024-03-22T14:31:13;11.40;99.90
46732;DHT22;32477;51.474;5.696;2024-03-22T14:33:40;11.30;99.90
46732;DHT22;32477;51.474;5.696;2024-03-22T14:36:07;11.20;99.90
46732;DHT22;32477;51.474;5.696;2024-03-22T14:38:33;11.20;99.90
46732;DHT22;32477;51.474;5.696;2024-03-22T14:40:59;11.20;99.90
46732;DHT22;32477;51.474;5.696;2024-03-22T14:43:25;11.30;99.90
46732;DHT22;32477;51.474;5.696;2024-03-22T14:45:52;11.30;99.90
46732;DHT22;32477;51.474;5.696;2024-03-22T14:48:19;11.20;99.90
46732;DHT22;32477;51.474;5.696;2024-03-22T14:50:46;11.20;99.90
46732;DHT22;32477;51.474;5.696;2024-03-22T14:53:12;11.20;99.90
46732;DHT22;32477;51.474;5.696;2024-03-22T14:55:37;11.10;99.90
46732;DHT22;32477;51.474;5.696;2024-03-22T14:58:08;11.10;99.90
46732;DHT22;32477;51.474;5.696;2024-03-22T15:00:40;11.10;99.90
46732;DHT22;32477;51.474;5.696;2024-03-22T15:03:06;11.10;99.90
46732;DHT22;32477;51.474;5.696;2024-03-22T15:05:31;11.00;99.90
46732;DHT22;32477;51.474;5.696;2024-03-22T15:07:57;11.10;99.90
46732;DHT22;32477;51.474;5.696;2024-03-22T15:10:23;11.10;99.90
46732;DHT22;32477;51.474;5.696;2024-03-22T15:12:49;11.10;99.90
46732;DHT22;32477;51.474;5.696;2024-03-22T15:15:15;11.10;99.90
46732;DHT22;32477;51.474;5.696;2024-03-22T15:17:40;11.10;99.90
46732;DHT22;32477;51.474;5.696;2024-03-22T15:20:07;11.10;99.90
46732;DHT22;32477;51.474;5.696;2024-03-22T15:22:34;11.00;99.90
46732;DHT22;32477;51.474;5.696;2024-03-22T15:25:00;10.90;99.90
46732;DHT22;32477;51.474;5.696;2024-03-22T15:27:25;10.90;99.90